Time;durP1;ratioP1;P1;durP2;ratioP2;P2;SDS_P1;SDS_P2;PMS_P1;PMS_P2;Temp;Humidity;BMP_temperature;BMP_pressure;BME280_temperature;BME280_humidity;BME280_pressure;Samples;Min_cycle;Max_cycle;Signal;HPM_P1;HPM_P2
2022/09/01 00:01:47;;;;;;;3.92;3.00;;;;;;;20.77;57.39;101091.44;1782620;79;26535;-62
2022/09/01 00:04:19;;;;;;;5.40;3.12;;;;;;;20.67;57.49;101085.41;1782919;80;25770;-63
2022/09/01 00:06:47;;;;;;;5.67;2.62;;;;;;;20.64;57.66;101083.92;1782711;80;28529;-64
2022/09/01 00:09:18;;;;;;;7.08;2.72;;;;;;;20.61;57.63;101082.94;1782843;80;25638;-63
2022/09/01 00:11:51;;;;;;;6.10;2.83;;;;;;;20.60;57.72;101083.97;1758465;81;25690;-63
2022/09/01 00:14:23;;;;;;;5.40;2.87;;;;;;;20.56;57.56;101088.16;1758659;81;26502;-63
2022/09/01 00:16:49;;;;;;;7.95;3.08;;;;;;;20.52;57.50;101092.30;1758151;81;25846;-62
2022/09/01 00:19:17;;;;;;;6.35;2.67;;;;;;;20.52;57.51;101088.20;1758194;81;27448;-63
2022/09/01 00:21:45;;;;;;;5.33;2.20;;;;;;;20.51;57.57;101087.87;1758203;81;25949;-64
2022/09/01 00:24:15;;;;;;;7.87;2.75;;;;;;;20.52;57.35;101088.73;1728703;81;25775;-63
2022/09/01 00:26:43;;;;;;;7.60;2.83;;;;;;;20.52;56.97;101083.27;1758483;80;25839;-63
2022/09/01 00:29:11;;;;;;;4.47;2.15;;;;;;;20.53;56.58;101082.23;1782867;80;25705;-63
2022/09/01 00:31:39;;;;;;;7.08;2.52;;;;;;;20.53;56.13;101078.97;1782722;80;28276;-63
2022/09/01 00:34:06;;;;;;;3.65;2.40;;;;;;;20.53;55.95;101082.23;1782932;80;25688;-63
2022/09/01 00:36:33;;;;;;;5.22;2.35;;;;;;;20.52;56.09;101086.84;1782790;80;25448;-63
2022/09/01 00:39:01;;;;;;;7.90;2.20;;;;;;;20.52;56.22;101081.37;1782878;79;25956;-63
2022/09/01 00:41:32;;;;;;;8.15;2.65;;;;;;;20.51;56.35;101076.11;1783061;80;26170;-63
2022/09/01 00:44:07;;;;;;;3.98;2.22;;;;;;;20.48;56.42;101075.98;1782767;80;28353;-63
2022/09/01 00:46:39;;;;;;;6.97;2.40;;;;;;;20.47;56.31;101081.13;1782635;80;25778;-63
2022/09/01 00:49:11;;;;;;;6.60;2.90;;;;;;;20.42;55.64;101084.44;1783005;80;25772;-63
2022/09/01 00:51:42;;;;;;;6.12;2.70;;;;;;;20.28;55.63;101080.71;1782622;80;25856;-64
2022/09/01 00:54:14;;;;;;;12.13;3.08;;;;;;;20.23;55.80;101079.59;1783638;80;25765;-63
2022/09/01 00:56:42;;;;;;;5.40;2.10;;;;;;;20.22;55.91;101074.63;1783362;80;27613;-63
2022/09/01 00:59:11;;;;;;;8.33;2.92;;;;;;;20.26;55.87;101072.39;1783554;80;25715;-63
2022/09/01 01:01:39;;;;;;;5.35;2.27;;;;;;;20.28;56.00;101068.92;1783405;80;25693;-63
2022/09/01 01:04:16;;;;;;;9.18;2.83;;;;;;;20.26;56.08;101067.76;1782649;79;25971;-63
2022/09/01 01:06:48;;;;;;;4.60;2.37;;;;;;;20.23;56.23;101060.47;1782381;79;25688;-63
2022/09/01 01:09:19;;;;;;;5.95;2.87;;;;;;;20.22;56.25;101062.34;1787824;79;27606;-63
2022/09/01 01:11:48;;;;;;;6.42;2.60;;;;;;;20.23;56.24;101053.11;1815465;79;25698;-63
2022/09/01 01:14:18;;;;;;;4.58;2.52;;;;;;;20.21;56.10;101059.31;1815713;79;25827;-63
2022/09/01 01:16:47;;;;;;;4.67;2.65;;;;;;;20.16;56.06;101066.72;1815636;79;25848;-63
2022/09/01 01:23:01;;;;;;;6.10;3.22;;;;;;;20.08;55.92;101067.34;1815433;79;27574;-63
2022/09/01 01:25:33;;;;;;;4.85;2.65;;;;;;;19.96;56.10;101071.09;1784179;79;25721;-64
2022/09/01 01:28:14;;;;;;;3.62;2.50;;;;;;;19.88;56.25;101067.94;1783343;79;26028;-63
2022/09/01 01:30:50;;;;;;;7.15;2.85;;;;;;;19.83;56.35;101068.47;1783426;79;26002;-63
2022/09/01 01:33:21;;;;;;;3.15;2.30;;;;;;;19.89;56.56;101072.89;1783492;79;25749;-63
2022/09/01 01:35:50;;;;;;;5.00;2.70;;;;;;;19.94;56.90;101076.75;1783682;79;27600;-64
2022/09/01 01:38:23;;;;;;;4.62;2.60;;;;;;;19.95;57.36;101077.05;1783248;80;25740;-63
2022/09/01 01:40:52;;;;;;;11.75;2.55;;;;;;;19.96;57.79;101082.01;1740192;81;25829;-63
2022/09/01 01:43:22;;;;;;;4.78;2.58;;;;;;;19.95;57.85;101084.41;1782671;80;25801;-63
2022/09/01 01:45:53;;;;;;;6.20;2.80;;;;;;;19.94;58.18;101082.20;1730852;82;25749;-63
2022/09/01 01:48:23;;;;;;;12.43;2.50;;;;;;;19.96;58.47;101077.37;1733481;81;27487;-63
2022/09/01 01:50:53;;;;;;;4.53;2.67;;;;;;;20.00;58.62;101083.30;1783080;80;26051;-63
2022/09/01 01:53:21;;;;;;;3.85;2.33;;;;;;;20.03;58.74;101090.29;1727660;81;25866;-64
2022/09/01 01:55:49;;;;;;;6.45;2.50;;;;;;;20.05;58.77;101091.78;1728592;83;25885;-63
2022/09/01 01:58:20;;;;;;;7.33;2.12;;;;;;;20.06;58.78;101096.22;1782788;80;25714;-63
2022/09/01 02:00:51;;;;;;;6.05;2.55;;;;;;;20.07;58.72;101094.31;1782942;80;27433;-63
2022/09/01 02:03:23;;;;;;;3.85;2.40;;;;;;;20.08;58.59;101094.11;1782565;80;25702;-63
2022/09/01 02:05:53;;;;;;;6.20;2.45;;;;;;;20.10;58.63;101094.77;1730537;81;25881;-63
2022/09/01 02:08:24;;;;;;;6.25;2.45;;;;;;;20.11;58.86;101104.66;1760031;81;25949;-63
2022/09/01 02:10:54;;;;;;;6.50;2.33;;;;;;;20.13;59.21;101103.96;1759944;81;26090;-63
2022/09/01 02:13:29;;;;;;;4.15;2.47;;;;;;;20.12;59.37;101101.43;1760323;81;27665;-65
2022/09/01 02:15:55;;;;;;;7.70;2.77;;;;;;;20.10;59.64;101100.77;1759118;81;25902;-63
2022/09/01 02:18:27;;;;;;;8.38;2.12;;;;;;;20.04;59.83;101101.55;1760336;81;25810;-62
2022/09/01 02:20:57;;;;;;;12.60;2.65;;;;;;;19.90;60.12;101105.45;1759555;81;26694;-62
2022/09/01 02:23:25;;;;;;;4.53;2.35;;;;;;;19.79;60.09;101109.48;1760887;81;25754;-63
2022/09/01 02:25:59;;;;;;;8.03;2.50;;;;;;;19.69;60.34;101111.12;1758359;81;27659;-63
2022/09/01 02:28:27;;;;;;;10.13;2.70;;;;;;;19.58;60.08;101111.61;1757465;81;26057;-62
2022/09/01 02:30:54;;;;;;;2.90;2.12;;;;;;;19.53;59.91;101109.94;1758530;80;26231;-63
2022/09/01 02:33:23;;;;;;;3.67;2.40;;;;;;;19.50;60.26;101112.53;1814976;79;26484;-62
2022/09/01 02:35:54;;;;;;;5.17;2.75;;;;;;;19.45;60.29;101113.62;1758534;80;25756;-63
2022/09/01 02:38:26;;;;;;;4.62;2.42;;;;;;;19.45;60.22;101104.08;1758608;81;27584;-63
2022/09/01 02:40:53;;;;;;;5.87;2.90;;;;;;;19.45;60.26;101109.53;1750529;81;25729;-63
2022/09/01 02:43:21;;;;;;;8.70;2.33;;;;;;;19.41;60.74;101108.20;1796156;79;25788;-63
2022/09/01 02:45:56;;;;;;;9.70;2.55;;;;;;;19.31;60.81;101109.84;1751129;81;25816;-64
2022/09/01 02:48:31;;;;;;;5.75;2.08;;;;;;;19.27;60.81;101112.59;1794303;79;25666;-63
2022/09/01 02:50:58;;;;;;;5.92;2.35;;;;;;;19.26;60.94;101112.80;1795343;79;28152;-63
2022/09/01 02:53:25;;;;;;;6.33;2.58;;;;;;;19.27;61.03;101116.69;1795820;79;25916;-63
2022/09/01 02:55:52;;;;;;;4.47;2.52;;;;;;;19.31;61.02;101117.16;1795810;79;25761;-63
2022/09/01 02:58:20;;;;;;;5.97;2.58;;;;;;;19.35;60.92;101120.70;1796171;79;25766;-63
2022/09/01 03:00:52;;;;;;;7.37;2.75;;;;;;;19.42;60.91;101121.30;1795791;79;25951;-63
2022/09/01 03:03:20;;;;;;;7.62;2.50;;;;;;;19.44;60.71;101131.53;1755132;81;29571;-64
2022/09/01 03:05:54;;;;;;;5.33;2.35;;;;;;;19.48;60.64;101127.41;1782401;80;25916;-63
2022/09/01 03:08:19;;;;;;;5.47;2.20;;;;;;;19.52;60.55;101128.70;1782704;80;25513;-63
2022/09/01 03:10:47;;;;;;;10.68;3.37;;;;;;;19.54;60.44;101122.55;1782634;80;25790;-62
2022/09/01 03:13:18;;;;;;;4.45;2.50;;;;;;;19.57;60.30;101123.55;1783168;80;25825;-62
2022/09/01 03:15:45;;;;;;;5.40;2.47;;;;;;;19.64;60.19;101129.09;1782544;80;28222;-63
2022/09/01 03:18:14;;;;;;;5.08;2.62;;;;;;;19.66;59.74;101124.30;1782855;79;25863;-62
2022/09/01 03:20:45;;;;;;;8.58;2.62;;;;;;;19.63;59.44;101126.06;1782529;80;25792;-62
2022/09/01 03:23:15;;;;;;;3.65;2.70;;;;;;;19.62;59.45;101117.53;1783112;79;25795;-63
2022/09/01 03:25:44;;;;;;;4.80;2.77;;;;;;;19.64;59.45;101121.77;1782738;80;25956;-63
2022/09/01 03:28:12;;;;;;;7.47;2.60;;;;;;;19.60;59.02;101130.52;1783168;80;28321;-63
2022/09/01 03:30:50;;;;;;;5.67;2.33;;;;;;;19.53;59.20;101129.05;1782470;80;25460;-63
2022/09/01 03:33:19;;;;;;;5.78;2.72;;;;;;;19.45;59.41;101131.86;1781998;80;25771;-62
2022/09/01 03:35:47;;;;;;;5.97;2.45;;;;;;;19.27;59.70;101134.42;1756021;80;25855;-63
2022/09/01 03:38:22;;;;;;;5.30;2.70;;;;;;;19.12;60.15;101129.45;1783222;80;25500;-63
2022/09/01 03:40:57;;;;;;;6.78;2.77;;;;;;;19.06;60.42;101130.50;1809741;79;27632;-62
2022/09/01 03:43:26;;;;;;;3.22;2.42;;;;;;;19.00;60.60;101128.52;1814994;79;26038;-62
2022/09/01 03:45:59;;;;;;;8.55;2.77;;;;;;;18.88;60.88;101121.77;1814690;79;25716;-62
2022/09/01 03:48:27;;;;;;;7.97;2.98;;;;;;;18.81;60.99;101122.16;1758574;80;25756;-62
2022/09/01 03:51:01;;;;;;;7.62;3.33;;;;;;;18.82;61.14;101132.91;1758199;81;25443;-63
2022/09/01 03:53:26;;;;;;;6.08;2.65;;;;;;;18.72;61.29;101122.76;1756505;81;28211;-63
2022/09/01 03:55:56;;;;;;;7.08;3.20;;;;;;;18.69;61.28;101126.67;1758127;81;25851;-62
2022/09/01 03:58:24;;;;;;;5.03;2.70;;;;;;;18.76;61.47;101130.39;1756870;81;25813;-63
2022/09/01 04:00:54;;;;;;;9.38;2.92;;;;;;;18.79;61.70;101127.81;1758389;81;25828;-63
2022/09/01 04:03:30;;;;;;;6.72;2.55;;;;;;;18.81;61.36;101125.76;1797059;79;25781;-63
2022/09/01 04:06:00;;;;;;;7.67;3.62;;;;;;;18.83;61.25;101132.37;1782434;80;27470;-63
2022/09/01 04:08:29;;;;;;;12.93;3.02;;;;;;;18.85;61.09;101131.69;1782627;80;25729;-63
2022/09/01 04:11:03;;;;;;;13.75;3.40;;;;;;;18.86;61.05;101122.48;1782597;79;25832;-63
2022/09/01 04:13:38;;;;;;;13.40;3.12;;;;;;;18.93;61.20;101121.58;1782859;79;27512;-63
2022/09/01 04:18:03;;;;;;;4.97;2.80;;;;;;;19.04;61.03;101123.55;1760104;81;25761;-63
2022/09/01 04:18:38;;;;;;;8.98;2.85;;;;;;;19.10;60.66;101120.60;1741655;82;27540;-63
2022/09/01 04:21:07;;;;;;;5.45;2.92;;;;;;;19.13;60.30;101121.08;1760015;81;26156;-63
2022/09/01 04:23:37;;;;;;;12.58;3.65;;;;;;;19.17;60.14;101118.83;1746689;81;25842;-63
2022/09/01 04:26:13;;;;;;;10.95;3.45;;;;;;;19.20;59.91;101118.47;1775176;80;25804;-61
2022/09/01 04:28:47;;;;;;;25.90;10.25;;;;;;;19.22;59.75;101122.70;1726797;82;25773;-62
2022/09/01 04:31:18;;;;;;;7.97;3.95;;;;;;;19.21;59.68;101120.17;1781428;80;27806;-63
2022/09/01 04:33:51;;;;;;;12.58;3.20;;;;;;;19.26;59.61;101122.34;1781272;80;25758;-63
2022/09/01 04:36:25;;;;;;;6.40;2.92;;;;;;;19.31;59.42;101119.89;1727089;83;26036;-63
2022/09/01 04:38:57;;;;;;;6.65;3.45;;;;;;;19.31;59.35;101125.34;1781093;80;25930;-63
2022/09/01 04:41:30;;;;;;;6.62;2.77;;;;;;;19.33;59.31;101126.02;1783239;80;26150;-63
2022/09/01 04:44:03;;;;;;;8.38;3.62;;;;;;;19.35;59.17;101130.78;1782956;80;27633;-63
2022/09/01 04:46:37;;;;;;;9.00;3.55;;;;;;;19.36;59.18;101135.20;1782684;80;26699;-63
2022/09/01 04:49:09;;;;;;;10.45;3.58;;;;;;;19.35;59.15;101135.70;1782713;80;25670;-63
2022/09/01 04:51:43;;;;;;;6.33;3.50;;;;;;;19.35;59.20;101137.06;1739064;81;25858;-64
2022/09/01 04:54:13;;;;;;;7.90;3.02;;;;;;;19.36;59.12;101133.31;1781763;79;25801;-63
2022/09/01 04:56:45;;;;;;;7.95;3.10;;;;;;;19.33;59.07;101130.94;1808862;78;27411;-63
2022/09/01 04:59:15;;;;;;;4.53;2.85;;;;;;;19.36;59.04;101124.29;1756961;81;25782;-63
2022/09/01 05:01:45;;;;;;;7.60;3.08;;;;;;;19.34;58.91;101127.19;1758050;80;25731;-64
2022/09/01 05:04:19;;;;;;;5.67;3.40;;;;;;;19.30;58.79;101126.38;1785883;79;26493;-64
2022/09/01 05:06:54;;;;;;;8.88;3.50;;;;;;;19.31;58.88;101123.98;1782693;80;25773;-63
2022/09/01 05:09:20;;;;;;;10.18;3.33;;;;;;;19.34;58.82;101129.91;1782887;80;27667;-63
2022/09/01 05:11:49;;;;;;;6.00;2.75;;;;;;;19.39;58.69;101128.86;1782053;80;25778;-64
2022/09/01 05:14:23;;;;;;;16.52;2.98;;;;;;;19.43;58.41;101131.19;1782924;80;25773;-63
2022/09/01 05:16:56;;;;;;;9.58;3.98;;;;;;;19.47;58.61;101127.07;1782645;80;26641;-63
2022/09/01 05:19:27;;;;;;;7.37;3.07;;;;;;;19.43;58.26;101126.59;1783355;80;25784;-63
2022/09/01 05:21:56;;;;;;;5.47;2.72;;;;;;;19.35;58.11;101135.70;1782541;80;28477;-64
2022/09/01 05:24:24;;;;;;;10.70;3.65;;;;;;;19.25;58.15;101140.56;1782414;79;26042;-63
2022/09/01 05:26:51;;;;;;;12.70;3.77;;;;;;;19.21;58.30;101140.09;1782629;80;25794;-63
2022/09/01 05:29:19;;;;;;;7.50;3.02;;;;;;;19.21;58.42;101138.73;1782904;80;26638;-63
2022/09/01 05:31:49;;;;;;;10.32;2.87;;;;;;;19.13;58.47;101137.44;1782751;80;25728;-63
2022/09/01 05:34:22;;;;;;;9.18;3.20;;;;;;;19.08;58.76;101131.70;1782897;80;29548;-63
2022/09/01 05:36:47;;;;;;;11.50;3.15;;;;;;;19.15;58.72;101134.02;1781986;80;25778;-64
2022/09/01 05:39:15;;;;;;;9.55;3.10;;;;;;;19.22;58.73;101140.42;1782968;80;25866;-63
2022/09/01 05:41:44;;;;;;;13.30;3.72;;;;;;;19.35;58.78;101132.14;1782743;80;25801;-63
2022/09/01 05:44:12;;;;;;;8.23;3.30;;;;;;;19.52;58.47;101132.30;1755030;80;25592;-63
2022/09/01 05:46:43;;;;;;;11.80;3.37;;;;;;;19.68;58.96;101130.42;1782607;80;28303;-63
2022/09/01 05:49:17;;;;;;;6.50;3.60;;;;;;;19.77;58.66;101125.20;1782709;80;25839;-63
2022/09/01 05:51:48;;;;;;;21.73;3.90;;;;;;;19.84;58.25;101130.23;1781254;80;25729;-63
2022/09/01 05:54:17;;;;;;;12.05;3.60;;;;;;;19.92;58.28;101127.95;1782869;80;26928;-63
2022/09/01 05:56:45;;;;;;;8.13;3.55;;;;;;;20.02;57.93;101137.21;1757695;80;26160;-62
2022/09/01 05:59:19;;;;;;;11.45;4.42;;;;;;;20.11;57.46;101134.70;1783218;80;28156;-63
2022/09/01 06:01:47;;;;;;;8.10;3.67;;;;;;;20.10;57.19;101131.64;1782945;80;25753;-64
2022/09/01 06:04:14;;;;;;;9.23;3.02;;;;;;;20.09;56.57;101134.05;1812758;79;25739;-63
2022/09/01 06:06:48;;;;;;;11.05;3.45;;;;;;;20.06;56.77;101133.58;1760799;81;26001;-63
2022/09/01 06:09:22;;;;;;;;;;;;;;;19.99;56.77;101138.98;1766936;81;25970;-63
2022/09/01 06:11:50;;;;;;;10.25;4.05;;;;;;;19.95;57.09;101146.67;1815343;79;27479;-63
2022/09/01 06:14:18;;;;;;;8.08;3.40;;;;;;;19.91;57.18;101134.45;1760557;81;25717;-63
2022/09/01 06:16:46;;;;;;;7.47;3.20;;;;;;;19.90;57.23;101134.12;1763832;81;25777;-63
2022/09/01 06:19:14;;;;;;;10.43;3.47;;;;;;;19.94;57.06;101131.36;1815230;79;25878;-63
2022/09/01 06:21:42;;;;;;;9.98;3.10;;;;;;;19.98;57.03;101134.02;1760206;81;25794;-63
2022/09/01 06:24:09;;;;;;;17.17;3.58;;;;;;;20.01;56.85;101138.25;1763807;81;27580;-63
2022/09/01 06:26:38;;;;;;;16.80;3.83;;;;;;;20.04;56.93;101132.41;1782949;80;25476;-63
2022/09/01 06:29:14;;;;;;;8.78;3.40;;;;;;;20.09;56.99;101140.88;1763952;81;25765;-63
2022/09/01 06:31:42;;;;;;;9.88;3.27;;;;;;;20.14;57.22;101139.80;1763196;81;26585;-63
2022/09/01 06:34:16;;;;;;;11.85;3.42;;;;;;;20.22;57.03;101139.36;1764162;81;25757;-62
2022/09/01 06:36:44;;;;;;;61.05;5.53;;;;;;;20.40;57.24;101145.25;1763658;81;31984;-63
2022/09/01 06:39:18;;;;;;;12.70;4.50;;;;;;;20.57;57.04;101140.91;1774124;80;25800;-63
2022/09/01 06:41:44;;;;;;;46.23;5.50;;;;;;;20.76;56.14;101144.41;1782252;80;25497;-63
2022/09/01 06:44:13;;;;;;;28.62;4.53;;;;;;;20.96;55.44;101146.50;1783836;80;26739;-63
2022/09/01 06:46:42;;;;;;;12.03;3.90;;;;;;;21.14;55.03;101146.02;1794417;79;25701;-62
2022/09/01 06:49:10;;;;;;;4.87;2.60;;;;;;;21.34;55.27;101155.75;1759516;81;27438;-63
2022/09/01 06:51:38;;;;;;;39.33;4.53;;;;;;;21.51;54.45;101153.58;1793892;80;26363;-63
2022/09/01 06:54:05;;;;;;;16.10;2.85;;;;;;;21.72;54.22;101161.44;1793262;79;25770;-63
2022/09/01 06:56:34;;;;;;;10.85;2.80;;;;;;;21.88;53.13;101158.38;1788053;80;25837;-63
2022/09/01 06:59:04;;;;;;;11.20;3.20;;;;;;;22.00;52.08;101155.91;1782842;80;25773;-63
2022/09/01 07:01:32;;;;;;;36.00;3.52;;;;;;;22.19;52.62;101154.83;1779187;79;27476;-63
2022/09/01 07:04:01;;;;;;;9.83;3.20;;;;;;;22.37;51.21;101154.25;1738352;81;25964;-63
2022/09/01 07:06:34;;;;;;;16.67;2.62;;;;;;;22.43;50.52;101144.41;1780192;79;25835;-63
2022/09/01 07:09:16;;;;;;;10.80;2.47;;;;;;;22.51;50.36;101141.47;1742614;81;26744;-63
2022/09/01 07:11:46;;;;;;;7.70;2.40;;;;;;;22.64;50.39;101146.14;1780330;79;27353;-63
2022/09/01 07:14:18;;;;;;;12.65;2.58;;;;;;;22.76;50.08;101141.75;1776754;80;29553;-63
2022/09/01 07:16:42;;;;;;;15.68;2.52;;;;;;;22.91;50.06;101142.94;1776049;80;25627;-63
2022/09/01 07:19:13;;;;;;;15.85;3.17;;;;;;;23.12;49.46;101141.05;1776924;80;25812;-63
2022/09/01 07:21:43;;;;;;;6.78;2.50;;;;;;;23.25;48.31;101142.45;1776156;80;25795;-64
2022/09/01 07:24:12;;;;;;;36.68;4.60;;;;;;;23.25;47.99;101142.98;1777158;80;25793;-64
2022/09/01 07:26:41;;;;;;;94.37;7.65;;;;;;;23.30;48.55;101145.92;1774766;80;28314;-63
2022/09/01 07:29:08;;;;;;;50.90;4.58;;;;;;;23.34;48.20;101145.83;1776779;80;25749;-64
2022/09/01 07:31:40;;;;;;;9.58;2.60;;;;;;;23.41;47.98;101139.80;1776787;80;25816;-66
2022/09/01 07:34:12;;;;;;;14.00;2.25;;;;;;;23.42;47.13;101140.63;1777023;80;25906;-64
2022/09/01 07:36:41;;;;;;;27.05;3.90;;;;;;;23.49;47.35;101145.58;1776708;80;25890;-64
2022/09/01 07:39:10;;;;;;;51.00;4.53;;;;;;;23.55;47.49;101145.27;1776754;80;27565;-64
2022/09/01 07:41:38;;;;;;;13.20;3.52;;;;;;;23.60;47.89;101150.97;1747052;80;25806;-64
2022/09/01 07:44:12;;;;;;;12.85;3.72;;;;;;;23.71;47.59;101148.92;1780070;79;25745;-63
2022/09/01 07:46:58;;;;;;;11.40;2.65;;;;;;;23.83;47.88;101145.52;1808899;79;26364;-63
2022/09/01 07:49:25;;;;;;;12.23;3.37;;;;;;;23.94;47.60;101136.66;1808481;79;27315;-63
2022/09/01 07:51:53;;;;;;;17.12;3.52;;;;;;;24.03;46.84;101135.86;1808503;79;27510;-63
2022/09/01 07:54:22;;;;;;;13.70;2.83;;;;;;;23.99;46.35;101134.63;1796507;78;25879;-64
2022/09/01 07:56:50;;;;;;;13.25;3.27;;;;;;;23.99;46.19;101133.25;1767282;80;25777;-63
2022/09/01 07:59:19;;;;;;;10.35;3.10;;;;;;;24.03;46.16;101129.86;1782711;79;26417;-64
2022/09/01 08:01:49;;;;;;;42.30;4.03;;;;;;;24.04;46.34;101131.55;1781235;79;25961;-63
2022/09/01 08:04:21;;;;;;;16.02;2.95;;;;;;;24.07;45.92;101128.89;1782331;79;28296;-64
2022/09/01 08:06:45;;;;;;;23.55;3.20;;;;;;;24.15;46.43;101130.56;1782024;80;25694;-64
2022/09/01 08:09:14;;;;;;;5.92;2.67;;;;;;;24.29;46.45;101130.80;1782825;80;25670;-63
2022/09/01 08:11:41;;;;;;;16.55;2.50;;;;;;;24.44;46.17;101117.28;1782718;80;25786;-63
2022/09/01 08:14:09;;;;;;;4.33;2.50;;;;;;;24.57;45.63;101117.22;1782758;80;25286;-63
2022/09/01 08:16:37;;;;;;;10.85;2.47;;;;;;;24.68;44.35;101116.55;1782728;80;27522;-64
2022/09/01 08:19:04;;;;;;;9.93;2.58;;;;;;;24.84;44.39;101117.06;1782625;80;25933;-63
2022/09/01 08:21:33;;;;;;;16.20;2.80;;;;;;;24.95;43.25;101119.62;1781006;80;25835;-64
2022/09/01 08:24:05;;;;;;;11.35;2.75;;;;;;;24.96;43.94;101108.92;1784494;79;25789;-63
2022/09/01 08:26:35;;;;;;;13.18;2.77;;;;;;;25.05;43.52;101104.00;1812783;79;25642;-64
2022/09/01 08:29:03;;;;;;;5.00;2.58;;;;;;;25.15;43.59;101113.94;1813639;79;27471;-63
2022/09/01 08:31:32;;;;;;;11.40;2.72;;;;;;;25.16;42.77;101112.36;1812776;79;25784;-63
2022/09/01 08:34:03;;;;;;;10.15;2.67;;;;;;;25.19;42.18;101114.36;1813562;79;25769;-64
2022/09/01 08:36:30;;;;;;;8.95;2.30;;;;;;;25.16;42.08;101111.50;1813493;79;25806;-64
2022/09/01 08:38:57;;;;;;;4.72;2.15;;;;;;;25.15;42.58;101115.31;1782046;79;25337;-64
2022/09/01 08:41:42;;;;;;;5.30;2.33;;;;;;;25.18;42.18;101116.25;1784670;79;27467;-63
2022/09/01 08:44:37;;;;;;;11.68;3.40;;;;;;;25.20;42.23;101116.02;1781962;79;25737;-64
2022/09/01 08:47:12;;;;;;;13.93;2.60;;;;;;;25.21;42.08;101113.58;1781978;79;25846;-64
2022/09/01 08:49:44;;;;;;;9.20;2.98;;;;;;;25.07;41.70;101112.84;1781665;80;25946;-64
2022/09/01 08:52:35;;;;;;;11.70;2.35;;;;;;;25.01;42.14;101111.86;1793141;79;25797;-64
2022/09/01 08:55:24;;;;;;;16.82;3.12;;;;;;;24.89;41.72;101104.84;1810457;79;27505;-63
2022/09/01 08:57:51;;;;;;;12.25;3.05;;;;;;;24.90;42.31;101098.27;1785550;79;25840;-65
2022/09/01 09:00:31;;;;;;;11.05;2.65;;;;;;;24.91;42.22;101103.27;1777687;79;25852;-64
2022/09/01 09:03:32;;;;;;;7.97;2.80;;;;;;;25.04;41.98;101102.31;1806909;79;26215;-64
2022/09/01 09:06:10;;;;;;;11.48;2.85;;;;;;;25.11;41.62;101105.84;1807446;79;25863;-64
2022/09/01 09:09:02;;;;;;;8.58;2.72;;;;;;;25.13;41.25;101106.46;1788716;79;27552;-65
2022/09/01 09:11:51;;;;;;;7.53;2.75;;;;;;;25.13;41.31;101107.84;1777805;79;25761;-64
2022/09/01 09:14:43;;;;;;;7.25;2.95;;;;;;;25.11;41.44;101108.05;1775790;80;25766;-65
2022/09/01 09:17:14;;;;;;;6.70;2.55;;;;;;;25.15;41.38;101110.67;1780226;79;27460;-65
2022/09/01 09:19:44;;;;;;;7.33;2.70;;;;;;;25.57;41.38;101099.07;1775794;80;26512;-65
2022/09/01 09:22:16;;;;;;;10.75;2.65;;;;;;;25.94;40.50;101097.70;1775692;80;27508;-64
2022/09/01 09:25:13;;;;;;;8.83;2.77;;;;;;;26.29;39.61;101098.13;1775607;80;25765;-64
2022/09/01 09:27:47;;;;;;;12.82;3.55;;;;;;;26.74;38.76;101093.53;1775924;80;26519;-64
2022/09/01 09:30:22;;;;;;;5.05;2.22;;;;;;;27.55;37.37;101093.56;1775690;80;25841;-64
2022/09/01 09:32:59;;;;;;;6.40;3.37;;;;;;;27.91;36.57;101093.78;1776121;80;25734;-64
2022/09/01 09:35:32;;;;;;;6.10;2.40;;;;;;;28.06;36.13;101084.95;1775722;80;27578;-63
2022/09/01 09:38:31;;;;;;;;;;;;;;;28.06;35.55;101083.58;1778634;80;26640;-64
2022/09/01 09:41:05;;;;;;;8.40;2.52;;;;;;;27.79;35.06;101094.37;1775632;80;25833;-63
2022/09/01 09:43:50;;;;;;;5.45;2.30;;;;;;;27.58;36.21;101093.91;1775562;80;25773;-64
2022/09/01 09:46:32;;;;;;;8.33;2.17;;;;;;;27.55;36.83;101093.01;1774985;80;25767;-63
2022/09/01 09:49:19;;;;;;;10.55;2.50;;;;;;;27.47;36.32;101091.48;1775821;79;28540;-64
2022/09/01 09:51:52;;;;;;;7.72;2.58;;;;;;;27.32;36.21;101091.07;1775510;79;25710;-64
2022/09/01 09:54:26;;;;;;;14.63;2.17;;;;;;;27.14;36.71;101092.05;1775988;80;25767;-64
2022/09/01 09:57:15;;;;;;;17.60;2.58;;;;;;;27.21;36.48;101091.38;1780687;80;26678;-63
2022/09/01 09:59:52;;;;;;;9.45;1.85;;;;;;;28.23;35.24;101085.06;1781665;79;25980;-64
2022/09/01 10:02:43;;;;;;;6.40;1.30;;;;;;;29.17;32.69;101076.43;1755603;80;27423;-63
2022/09/01 10:05:43;;;;;;;7.17;1.00;;;;;;;29.73;29.99;101081.09;1749140;81;25802;-64
2022/09/01 10:08:43;;;;;;;17.27;1.90;;;;;;;30.40;30.23;101077.17;1780080;80;25706;-63
2022/09/01 10:11:08;;;;;;;7.70;1.75;;;;;;;31.53;29.04;101075.02;1781568;79;25872;-64
2022/09/01 10:13:35;;;;;;;78.95;5.67;;;;;;;32.36;26.49;101066.45;1781372;80;25331;-63
2022/09/01 10:16:07;;;;;;;10.82;1.47;;;;;;;32.42;26.94;101070.08;1781287;79;27472;-66
2022/09/01 10:18:43;;;;;;;2.47;1.10;;;;;;;33.07;26.32;101071.76;1781374;80;26209;-64
2022/09/01 10:21:21;;;;;;;9.83;1.30;;;;;;;33.65;26.58;101071.92;1781562;80;25999;-64
2022/09/01 10:23:48;;;;;;;5.95;1.30;;;;;;;34.43;25.46;101070.14;1781308;79;25816;-64
2022/09/01 10:26:20;;;;;;;2.50;1.02;;;;;;;34.61;23.07;101063.00;1781329;80;25713;-65
2022/09/01 10:28:55;;;;;;;15.65;1.57;;;;;;;34.62;24.04;101062.73;1781155;79;31157;-65
2022/09/01 10:31:23;;;;;;;14.87;1.50;;;;;;;34.74;23.75;101062.34;1762729;79;26584;-64
2022/09/01 10:33:50;;;;;;;8.15;1.20;;;;;;;34.37;23.11;101064.30;1781449;79;26551;-64
2022/09/01 10:36:18;;;;;;;5.17;1.42;;;;;;;33.63;22.81;101064.39;1781541;79;26004;-63
2022/09/01 10:38:47;;;;;;;8.05;1.10;;;;;;;33.00;24.29;101065.64;1781297;80;25758;-63
2022/09/01 10:41:50;;;;;;;5.67;1.20;;;;;;;33.18;24.51;101055.84;1781753;80;27612;-64
2022/09/01 10:44:32;;;;;;;4.47;1.42;;;;;;;32.98;24.82;101060.08;1796667;79;26552;-67
2022/09/01 10:47:13;;;;;;;3.83;1.30;;;;;;;32.62;24.39;101062.28;1784902;79;25789;-64
2022/09/01 10:49:51;;;;;;;6.58;1.37;;;;;;;32.63;25.15;101059.78;1780093;79;27925;-64
2022/09/01 10:52:45;;;;;;;3.42;1.50;;;;;;;32.75;24.57;101053.39;1781717;80;25777;-64
2022/09/01 10:55:35;;;;;;;;;;;;;;;32.25;25.70;101061.97;1782791;80;28370;-62
2022/09/01 10:58:47;;;;;;;11.85;1.57;;;;;;;31.75;25.53;101062.91;1776089;80;25737;-63
2022/09/01 11:01:14;;;;;;;8.15;1.27;;;;;;;31.07;26.20;101066.66;1775715;80;25851;-62
2022/09/01 11:03:55;;;;;;;4.72;1.10;;;;;;;30.51;27.23;101055.06;1775504;80;26550;-63
2022/09/01 11:06:42;;;;;;;3.70;1.37;;;;;;;30.43;26.42;101054.45;1775987;80;25737;-62
2022/09/01 11:09:27;;;;;;;8.85;1.60;;;;;;;30.36;27.01;101056.61;1775661;79;27372;-62
2022/09/01 11:12:23;;;;;;;8.35;1.27;;;;;;;31.05;26.59;101058.31;1775832;79;25798;-62
2022/09/01 11:14:56;;;;;;;5.42;1.20;;;;;;;31.82;26.21;101050.99;1775324;80;25720;-64
2022/09/01 11:17:36;;;;;;;4.80;1.07;;;;;;;33.16;25.70;101046.95;1775927;80;25798;-64
2022/09/01 11:20:23;;;;;;;42.35;2.33;;;;;;;33.97;24.07;101049.74;1775527;80;26476;-63
2022/09/01 11:23:04;;;;;;;2.35;0.85;;;;;;;33.57;24.31;101044.63;1775734;80;27491;-64
2022/09/01 11:25:40;;;;;;;9.68;1.15;;;;;;;33.15;24.40;101045.82;1775402;79;25822;-64
2022/09/01 11:28:12;;;;;;;9.08;1.32;;;;;;;33.83;24.46;101031.95;1775707;80;25724;-64
2022/09/01 11:30:53;;;;;;;4.40;1.30;;;;;;;34.74;23.58;101034.98;1756864;80;25860;-64
2022/09/01 11:33:35;;;;;;;7.12;1.95;;;;;;;35.29;21.87;101037.50;1757183;80;26269;-63
2022/09/01 11:36:19;;;;;;;12.68;2.02;;;;;;;35.60;21.67;101027.34;1756869;80;27542;-65
2022/09/01 11:38:54;;;;;;;4.97;1.40;;;;;;;36.11;21.69;101034.22;1757247;81;25720;-64
2022/09/01 11:41:31;;;;;;;8.08;1.40;;;;;;;36.10;22.23;101040.95;1726812;82;25819;-64
2022/09/01 11:43:59;;;;;;;9.63;1.22;;;;;;;36.70;22.08;101037.23;1781218;80;25940;-65
2022/09/01 11:46:33;;;;;;;32.30;1.82;;;;;;;37.30;19.63;101032.78;1757972;81;26555;-64
2022/09/01 11:49:07;;;;;;;7.67;1.50;;;;;;;36.95;19.71;101030.36;1758662;81;28495;-64
2022/09/01 11:51:46;;;;;;;7.87;1.40;;;;;;;36.49;20.81;101025.81;1758586;81;25905;-63
2022/09/01 11:54:15;;;;;;;7.80;1.17;;;;;;;35.81;20.93;101031.28;1759167;81;25960;-64